Terminal Aerodrome Forecast
Issued by NWS Corpus Christi, TX

Home | Current Version | Previous Version | Text Only | Print | Product List | Glossary On
Versions: 1 2 3 4 5 6 7 8 9 10 11 12 13 14 15 16 17 18
330
FTUS44 KCRP 300416 AAC
TAFCRP
TAF AMD
KCRP 300416Z 3004/3024 16022G32KT P6SM VCSH SCT025
      TEMPO 3004/3006 VRB30G45KT 5SM -SHRA BR BKN025
     FM300600 36025G35KT P6SM OVC045
     FM301200 34015G25KT P6SM SCT150
     FM302100 35012KT P6SM FEW250=

USA.gov is the U.S. government's official web portal to all federal, state and local government web resources and services.